Time,TemperatureF,DewpointF,PressureIn,WindDirection,WindDirectionDegrees,WindSpeedMPH,WindSpeedGustMPH,Humidity,HourlyPrecipIn,Conditions,Clouds,dailyrainin,SolarRadiationWatts/m^2,SoftwareType,DateUTC
2013-02-13 00:03:00,44.9,14.7,29.71,East,98,0.7,1.3,29,-99.99,,,0.00,0,rob ver 1A,2013-02-13 07:03:00,
2013-02-13 00:08:00,45.4,14.6,29.71,ENE,61,1.0,1.2,28,-99.99,,,0.00,0,rob ver 1A,2013-02-13 07:08:00,
2013-02-13 00:13:00,46.1,14.3,29.71,NNE,20,1.5,1.7,27,-99.99,,,0.00,0,rob ver 1A,2013-02-13 07:13:00,
2013-02-13 00:18:00,46.1,14.8,29.71,NNW,329,2.3,2.7,28,-99.99,,,0.00,0,rob ver 1A,2013-02-13 07:18:00,
2013-02-13 00:23:00,45.5,14.8,29.71,NNE,15,1.7,1.9,28,-99.99,,,0.00,0,rob ver 1B,2013-02-13 07:23:00,
2013-02-13 00:28:00,45.1,14.7,29.71,NW,318,2.5,2.9,28,-99.99,,,0.00,0,rob ver 1A,2013-02-13 07:28:00,
2013-02-13 00:33:00,45.4,14.7,29.71,NW,305,2.8,3.2,28,-99.99,,,0.00,0,rob ver 1A,2013-02-13 07:33:00,
2013-02-13 00:38:00,45.4,14.7,29.71,NW,319,2.8,3.0,28,-99.99,,,0.00,0,rob ver 1A,2013-02-13 07:38:00,
2013-02-13 00:43:00,45.2,14.9,29.71,NW,322,3.0,3.4,29,-99.99,,,0.00,0,rob ver 1A,2013-02-13 07:43:00,
2013-02-13 00:48:00,44.5,14.5,29.71,NW,321,2.6,2.9,29,-99.99,,,0.00,0,rob ver 1A,2013-02-13 07:48:00,
2013-02-13 00:53:00,44.1,14.4,29.71,NNW,335,3.2,3.6,29,-99.99,,,0.00,0,rob ver 1A,2013-02-13 07:53:00,
2013-02-13 00:58:00,45.0,14.3,29.71,NNW,339,3.5,3.9,28,-99.99,,,0.00,0,rob ver 1A,2013-02-13 07:58:00,
2013-02-13 01:03:00,44.8,14.4,29.71,NNW,339,4.0,4.3,28,-99.99,,,0.00,0,rob ver 1A,2013-02-13 08:03:00,
2013-02-13 01:08:00,44.5,14.5,29.71,NNW,339,3.8,4.3,29,-99.99,,,0.00,0,rob ver 1A,2013-02-13 08:08:00,
2013-02-13 01:13:00,44.8,14.1,29.71,NNW,340,3.5,3.8,28,-99.99,,,0.00,0,rob ver 1A,2013-02-13 08:13:00,
2013-02-13 01:19:00,44.4,14.7,29.71,WNW,288,3.5,3.7,29,-99.99,,,0.00,0,rob ver 1A,2013-02-13 08:19:00,
2013-02-13 01:24:00,44.3,14.1,29.71,WNW,303,4.6,5.0,28,-99.99,,,0.00,0,rob ver 1A,2013-02-13 08:24:00,
2013-02-13 01:29:00,43.6,15.0,29.71,WNW,292,3.2,3.4,31,-99.99,,,0.00,0,rob ver 1A,2013-02-13 08:29:00,
2013-02-13 01:34:00,42.5,15.3,29.71,West,279,3.3,3.5,32,-99.99,,,0.00,0,rob ver 1A,2013-02-13 08:34:00,
2013-02-13 01:39:00,41.5,15.4,29.71,West,281,3.2,3.5,34,-99.99,,,0.00,0,rob ver 1A,2013-02-13 08:39:00,
2013-02-13 01:44:00,41.4,15.6,29.71,West,269,2.2,2.3,34,-99.99,,,0.00,0,rob ver 1A,2013-02-13 08:44:00,
2013-02-13 01:49:00,41.3,15.7,29.71,WNW,284,2.6,2.7,34,-99.99,,,0.00,0,rob ver 1A,2013-02-13 08:49:00,
2013-02-13 01:54:00,41.6,15.3,29.71,NW,305,2.8,2.9,33,-99.99,,,0.00,0,rob ver 1A,2013-02-13 08:54:00,
2013-02-13 01:59:00,42.0,15.1,29.71,NNW,327,2.7,3.1,32,-99.99,,,0.00,0,rob ver 1A,2013-02-13 08:59:00,
2013-02-13 02:04:00,43.4,14.3,29.71,NW,321,3.4,3.6,30,-99.99,,,0.00,0,rob ver 1A,2013-02-13 09:04:00,
2013-02-13 02:09:00,44.0,14.2,29.71,NW,304,3.3,3.7,29,-99.99,,,0.00,0,rob ver 1A,2013-02-13 09:09:00,
2013-02-13 02:14:00,43.5,14.0,29.71,NW,305,3.6,3.8,29,-99.99,,,0.00,0,rob ver 1A,2013-02-13 09:14:00,
2013-02-13 02:19:00,44.0,14.0,29.71,WNW,301,3.5,3.7,29,-99.99,,,0.00,0,rob ver 1A,2013-02-13 09:19:00,
2013-02-13 02:24:00,44.3,13.8,29.71,WNW,296,2.6,2.8,28,-99.99,,,0.00,0,rob ver 1B,2013-02-13 09:24:00,
2013-02-13 02:29:00,43.9,14.6,29.68,WNW,301,1.9,2.0,30,-99.99,,,0.00,0,rob ver 1A,2013-02-13 09:29:00,
2013-02-13 02:34:00,43.5,14.1,29.71,West,279,1.6,1.8,29,-99.99,,,0.00,0,rob ver 1A,2013-02-13 09:34:00,
2013-02-13 02:39:00,43.7,14.3,29.68,NW,305,1.7,1.8,30,-99.99,,,0.00,0,rob ver 1A,2013-02-13 09:39:00,
2013-02-13 02:44:00,43.3,14.1,29.68,NNW,337,1.3,1.5,30,-99.99,,,0.00,0,rob ver 1A,2013-02-13 09:44:00,
2013-02-13 02:49:00,43.3,14.3,29.68,North,0,1.1,1.3,30,-99.99,,,0.00,0,rob ver 1B,2013-02-13 09:49:00,
2013-02-13 02:54:00,43.3,15.2,29.68,North,355,0.6,1.0,31,-99.99,,,0.00,0,rob ver 1A,2013-02-13 09:54:00,
2013-02-13 02:59:00,43.2,14.2,29.68,West,259,2.1,2.1,30,-99.99,,,0.00,0,rob ver 1A,2013-02-13 09:59:00,
2013-02-13 03:04:00,43.3,14.9,29.68,West,262,1.6,2.0,31,-99.99,,,0.00,0,rob ver 1A,2013-02-13 10:04:00,
2013-02-13 03:09:00,42.5,15.5,29.68,SW,236,1.2,1.3,33,-99.99,,,0.00,0,rob ver 1A,2013-02-13 10:09:00,
2013-02-13 03:14:00,41.9,15.3,29.68,WSW,254,1.2,1.5,33,-99.99,,,0.00,0,rob ver 1A,2013-02-13 10:14:00,
2013-02-13 03:20:00,41.2,15.4,29.68,WSW,253,1.0,1.2,34,-99.99,,,0.00,0,rob ver 1A,2013-02-13 10:20:00,
2013-02-13 03:25:00,40.5,16.0,29.68,SSE,157,1.6,2.1,36,-99.99,,,0.00,0,rob ver 1A,2013-02-13 10:25:00,
2013-02-13 03:30:00,40.4,16.1,29.68,SSW,194,1.1,1.1,36,-99.99,,,0.00,0,rob ver 1A,2013-02-13 10:30:00,
2013-02-13 03:35:00,40.4,16.8,29.68,SW,228,1.5,1.6,37,-99.99,,,0.00,0,rob ver 1B,2013-02-13 10:35:00,
2013-02-13 03:40:00,40.3,17.2,29.68,SW,214,2.4,2.5,38,-99.99,,,0.00,0,rob ver 1A,2013-02-13 10:40:00,
2013-02-13 03:45:00,40.1,17.3,29.68,SW,226,2.0,2.5,39,-99.99,,,0.00,0,rob ver 1A,2013-02-13 10:45:00,
2013-02-13 03:50:00,39.9,17.3,29.68,SW,227,1.9,2.1,39,-99.99,,,0.00,0,rob ver 1A,2013-02-13 10:50:00,
2013-02-13 03:55:00,40.3,17.0,29.68,SW,234,1.6,1.9,38,-99.99,,,0.00,0,rob ver 1A,2013-02-13 10:55:00,
2013-02-13 04:00:00,40.6,17.1,29.68,West,273,2.6,3.3,38,-99.99,,,0.00,0,rob ver 1A,2013-02-13 11:00:00,
2013-02-13 04:05:00,40.2,17.3,29.68,WNW,303,3.4,3.7,39,-99.99,,,0.00,0,rob ver 1A,2013-02-13 11:05:00,
2013-02-13 04:10:00,39.8,17.1,29.68,NW,304,4.5,4.9,39,-99.99,,,0.00,0,rob ver 1A,2013-02-13 11:10:00,
2013-02-13 04:15:00,39.8,16.9,29.68,WNW,287,5.1,5.7,38,-99.99,,,0.00,0,rob ver 1A,2013-02-13 11:15:00,
2013-02-13 04:20:00,40.2,16.6,29.68,West,271,5.1,5.5,37,-99.99,,,0.00,0,rob ver 1A,2013-02-13 11:20:00,
2013-02-13 04:25:00,40.4,16.4,29.68,West,268,4.9,5.2,37,-99.99,,,0.00,0,rob ver 1A,2013-02-13 11:25:00,
2013-02-13 04:30:00,40.2,16.4,29.68,West,271,4.3,5.0,37,-99.99,,,0.00,0,rob ver 1A,2013-02-13 11:30:00,
2013-02-13 04:35:00,40.1,17.1,29.68,NW,311,2.7,3.4,38,-99.99,,,0.00,0,rob ver 1B,2013-02-13 11:35:00,
2013-02-13 04:40:00,39.9,16.6,29.68,NNW,342,2.2,2.5,38,-99.99,,,0.00,0,rob ver 1A,2013-02-13 11:40:00,
2013-02-13 04:45:00,40.4,16.8,29.68,NNW,344,2.7,3.1,37,-99.99,,,0.00,0,rob ver 1A,2013-02-13 11:45:00,
2013-02-13 04:50:00,40.2,16.2,29.68,North,353,1.5,1.7,37,-99.99,,,0.00,0,rob ver 1A,2013-02-13 11:50:00,
2013-02-13 04:55:00,40.1,16.2,29.68,NE,37,2.2,2.6,37,-99.99,,,0.00,0,rob ver 1A,2013-02-13 11:55:00,
2013-02-13 05:00:00,40.8,15.4,29.68,NNE,23,3.0,4.2,35,-99.99,,,0.00,0,rob ver 1A,2013-02-13 12:00:00,
2013-02-13 05:05:00,41.3,14.9,29.68,North,357,1.6,2.1,33,-99.99,,,0.00,0,rob ver 1A,2013-02-13 12:05:00,
2013-02-13 05:10:00,41.7,14.9,29.68,NE,35,1.7,2.3,33,-99.99,,,0.00,0,rob ver 1A,2013-02-13 12:10:00,
2013-02-13 05:15:00,41.4,15.4,29.68,South,179,2.3,3.1,34,-99.99,,,0.00,0,rob ver 1A,2013-02-13 12:15:00,
2013-02-13 05:20:00,40.9,15.1,29.68,South,191,1.8,2.1,34,-99.99,,,0.00,0,rob ver 1A,2013-02-13 12:20:00,
2013-02-13 05:25:00,41.4,14.6,29.68,WSW,243,0.7,1.0,33,-99.99,,,0.00,0,rob ver 1A,2013-02-13 12:25:00,
2013-02-13 05:30:00,41.8,14.7,29.68,West,266,2.2,2.6,32,-99.99,,,0.00,0,rob ver 1A,2013-02-13 12:30:00,
2013-02-13 05:35:00,42.1,14.8,29.68,WSW,256,3.4,3.5,32,-99.99,,,0.00,0,rob ver 1A,2013-02-13 12:35:00,
2013-02-13 05:41:00,41.6,15.2,29.68,WSW,246,2.9,3.2,33,-99.99,,,0.00,0,rob ver 1A,2013-02-13 12:41:00,
2013-02-13 05:46:00,40.7,15.5,29.68,WSW,239,4.7,5.1,36,-99.99,,,0.00,0,rob ver 1A,2013-02-13 12:46:00,
2013-02-13 05:51:00,39.0,16.7,29.68,WSW,241,3.5,3.8,40,-99.99,,,0.00,0,rob ver 1A,2013-02-13 12:51:00,
2013-02-13 05:56:00,38.8,17.0,29.68,West,281,0.3,0.4,40,-99.99,,,0.00,0,rob ver 1A,2013-02-13 12:56:00,
2013-02-13 06:01:00,38.5,17.1,29.68,ESE,102,1.5,1.8,41,-99.99,,,0.00,0,rob ver 1A,2013-02-13 13:01:00,
2013-02-13 06:06:00,39.0,17.2,29.68,SSE,160,1.8,1.9,40,-99.99,,,0.00,0,rob ver 1A,2013-02-13 13:06:00,
2013-02-13 06:11:00,39.4,17.2,29.68,SSE,155,2.0,2.2,40,-99.99,,,0.00,0,rob ver 1A,2013-02-13 13:11:00,
2013-02-13 06:16:00,39.8,17.2,29.68,SE,146,1.3,1.6,39,-99.99,,,0.00,0,rob ver 1A,2013-02-13 13:16:00,
2013-02-13 06:21:00,39.5,17.3,29.68,SSW,206,1.7,1.9,40,-99.99,,,0.00,0,rob ver 1A,2013-02-13 13:21:00,
2013-02-13 06:26:00,39.4,17.5,29.68,SW,214,1.5,1.8,40,-99.99,,,0.00,0,rob ver 1A,2013-02-13 13:26:00,
2013-02-13 06:31:00,39.0,17.7,29.68,WSW,258,1.7,2.1,41,-99.99,,,0.00,0,rob ver 1A,2013-02-13 13:31:00,
2013-02-13 06:36:00,38.8,17.9,29.68,NW,309,1.6,2.1,42,-99.99,,,0.00,0,rob ver 1A,2013-02-13 13:36:00,
2013-02-13 06:41:00,38.9,17.7,29.68,WNW,292,1.4,1.8,41,-99.99,,,0.00,0,rob ver 1A,2013-02-13 13:41:00,
2013-02-13 06:46:00,38.8,17.9,29.68,NNW,331,1.7,2.0,42,-99.99,,,0.00,0,rob ver 1A,2013-02-13 13:46:00,
2013-02-13 06:51:00,38.9,17.6,29.68,NNW,340,1.4,1.8,41,-99.99,,,0.00,0,rob ver 1A,2013-02-13 13:51:00,
2013-02-13 06:56:00,39.4,17.3,29.68,NNW,347,1.9,2.6,40,-99.99,,,0.00,0,rob ver 1A,2013-02-13 13:56:00,
2013-02-13 07:01:00,40.1,16.8,29.68,NW,321,3.7,5.1,38,-99.99,,,0.00,0,rob ver 1A,2013-02-13 14:01:00,
2013-02-13 07:06:00,40.6,16.4,29.68,WNW,291,2.8,3.6,37,-99.99,,,0.00,.329,rob ver 1A,2013-02-13 14:06:00,
2013-02-13 07:11:00,40.2,16.2,29.68,WNW,295,3.8,5.0,37,-99.99,,,0.00,1.316,rob ver 1A,2013-02-13 14:11:00,
2013-02-13 07:16:00,39.7,16.2,29.68,WNW,287,3.7,4.4,37,-99.99,,,0.00,2.633,rob ver 1A,2013-02-13 14:16:00,
2013-02-13 07:21:00,40.0,15.1,29.68,NW,310,4.2,5.2,34,-99.99,,,0.00,4.278,rob ver 1A,2013-02-13 14:21:00,
2013-02-13 07:27:00,40.9,15.2,29.68,West,277,2.6,4.2,35,-99.99,,,0.00,10.7,rob ver 1A,2013-02-13 14:27:00,
2013-02-13 07:32:00,38.7,17.5,29.68,WSW,237,3.3,4.0,42,-99.99,,,0.00,20.73,rob ver 1A,2013-02-13 14:32:00,
2013-02-13 07:37:00,38.0,18.1,29.68,SSE,165,0.8,1.2,44,-99.99,,,0.00,31.92,rob ver 1A,2013-02-13 14:37:00,
2013-02-13 07:42:00,39.0,17.1,29.68,ESE,108,1.1,1.9,40,-99.99,,,0.00,42.45,rob ver 1A,2013-02-13 14:42:00,
2013-02-13 07:47:00,38.7,17.3,29.71,SSE,147,3.4,3.8,41,-99.99,,,0.00,55.78,rob ver 1A,2013-02-13 14:47:00,
2013-02-13 07:52:00,39.6,17.0,29.71,South,170,2.8,3.6,39,-99.99,,,0.00,68.78,rob ver 1A,2013-02-13 14:52:00,
2013-02-13 07:57:00,40.5,16.2,29.71,SE,143,1.7,2.4,37,-99.99,,,0.00,82.3,rob ver 1B,2013-02-13 14:57:00,
2013-02-13 08:02:00,41.1,17.1,29.71,ESE,112,1.4,1.7,36,-99.99,,,0.00,96.4,rob ver 1A,2013-02-13 15:02:00,
2013-02-13 08:07:00,43.4,16.2,29.71,WNW,287,0.9,1.1,32,-99.99,,,0.00,110.2,rob ver 1A,2013-02-13 15:07:00,
2013-02-13 08:12:00,44.7,15.5,29.71,WNW,295,2.9,3.4,30,-99.99,,,0.00,128.7,rob ver 1A,2013-02-13 15:12:00,
2013-02-13 08:17:00,44.3,16.0,29.71,WNW,296,4.0,4.2,31,-99.99,,,0.00,143.8,rob ver 1A,2013-02-13 15:17:00,
2013-02-13 08:22:00,44.0,16.9,29.71,West,277,4.6,5.7,33,-99.99,,,0.00,158.9,rob ver 1A,2013-02-13 15:22:00,
2013-02-13 08:27:00,43.9,17.1,29.71,WSW,242,3.8,4.7,33,-99.99,,,0.00,175.7,rob ver 1A,2013-02-13 15:27:00,
2013-02-13 08:32:00,43.9,17.3,29.71,SSW,210,2.8,3.4,33,-99.99,,,0.00,191.2,rob ver 1A,2013-02-13 15:32:00,
2013-02-13 08:37:00,43.9,17.5,29.71,SSE,165,3.0,3.8,34,-99.99,,,0.00,204.6,rob ver 1B,2013-02-13 15:37:00,
2013-02-13 08:42:00,43.8,17.1,29.71,South,171,2.6,3.4,33,-99.99,,,0.00,223.9,rob ver 1A,2013-02-13 15:42:00,
2013-02-13 08:47:00,45.6,17.6,29.71,West,259,4.2,6.4,31,-99.99,,,0.00,241.1,rob ver 1A,2013-02-13 15:47:00,
2013-02-13 08:52:00,46.3,16.8,29.71,West,268,5.7,6.9,30,-99.99,,,0.00,257.9,rob ver 1A,2013-02-13 15:52:00,
2013-02-13 08:57:00,47.0,17.5,29.71,West,262,6.4,7.5,30,-99.99,,,0.00,274.2,rob ver 1A,2013-02-13 15:57:00,
2013-02-13 09:02:00,47.6,16.2,29.71,West,279,7.7,9.3,27,-99.99,,,0.00,291.1,rob ver 1A,2013-02-13 16:02:00,
2013-02-13 09:07:00,47.9,16.4,29.71,West,274,6.1,7.3,28,-99.99,,,0.00,307.5,rob ver 1A,2013-02-13 16:07:00,
2013-02-13 09:12:00,48.3,16.8,29.71,West,270,6.1,7.7,27,-99.99,,,0.00,323.8,rob ver 1A,2013-02-13 16:12:00,
2013-02-13 09:17:00,49.3,17.3,29.71,West,280,4.4,6.8,26,-99.99,,,0.00,339.7,rob ver 1B,2013-02-13 16:17:00,
2013-02-13 09:22:00,50.2,16.7,29.71,WNW,285,8.2,10.1,26,-99.99,,,0.00,355.8,rob ver 1A,2013-02-13 16:22:00,
2013-02-13 09:27:00,50.0,16.7,29.71,West,279,10.0,11.9,25,-99.99,,,0.00,371.6,rob ver 1A,2013-02-13 16:27:00,
2013-02-13 09:33:00,50.3,16.9,29.71,West,272,9.1,10.8,26,-99.99,,,0.00,387.7,rob ver 1A,2013-02-13 16:33:00,
2013-02-13 09:38:00,50.6,16.4,29.71,West,277,9.6,11.9,25,-99.99,,,0.00,402.4,rob ver 1A,2013-02-13 16:38:00,
2013-02-13 09:43:00,50.8,15.8,29.71,West,273,11.6,14.0,24,-99.99,,,0.00,418.2,rob ver 1B,2013-02-13 16:43:00,
2013-02-13 09:48:00,51.1,16.2,29.71,West,280,11.0,13.0,24,-99.99,,,0.00,433.1,rob ver 1A,2013-02-13 16:48:00,
2013-02-13 09:53:00,51.5,15.7,29.71,West,275,10.7,12.5,23,-99.99,,,0.00,447.2,rob ver 1A,2013-02-13 16:53:00,
2013-02-13 09:58:00,52.2,15.7,29.71,West,275,10.2,12.0,23,-99.99,,,0.00,462.2,rob ver 1A,2013-02-13 16:58:00,
2013-02-13 10:03:00,52.7,15.8,29.71,West,275,9.9,12.5,23,-99.99,,,0.00,477.3,rob ver 1B,2013-02-13 17:03:00,
2013-02-13 10:08:00,52.9,16.4,29.71,West,261,8.7,10.6,22,-99.99,,,0.00,493.7,rob ver 1A,2013-02-13 17:08:00,
2013-02-13 10:13:00,53.1,16.2,29.71,West,269,7.1,9.1,23,-99.99,,,0.00,507.3,rob ver 1A,2013-02-13 17:13:00,
2013-02-13 10:18:00,53.5,16.5,29.71,West,270,6.9,8.9,22,-99.99,,,0.00,520.4,rob ver 1A,2013-02-13 17:18:00,
2013-02-13 10:23:00,54.3,17.0,29.71,West,276,6.1,9.5,22,-99.99,,,0.00,535.1,rob ver 1A,2013-02-13 17:23:00,
2013-02-13 10:28:00,55.3,16.8,29.71,WNW,295,4.0,5.6,21,-99.99,,,0.00,546.5,rob ver 1A,2013-02-13 17:28:00,
2013-02-13 10:33:00,55.8,16.9,29.71,WNW,283,5.9,9.0,21,-99.99,,,0.00,558,rob ver 1A,2013-02-13 17:33:00,
2013-02-13 10:38:00,56.1,16.9,29.71,West,272,6.9,9.1,21,-99.99,,,0.00,569.8,rob ver 1A,2013-02-13 17:38:00,
2013-02-13 10:43:00,56.2,17.1,29.71,West,275,7.5,9.2,21,-99.99,,,0.00,580.9,rob ver 1A,2013-02-13 17:43:00,
2013-02-13 10:48:00,56.6,18.1,29.71,West,260,6.5,8.1,21,-99.99,,,0.00,591.7,rob ver 1A,2013-02-13 17:48:00,
2013-02-13 10:53:00,57.5,18.2,29.71,West,279,6.0,7.6,21,-99.99,,,0.00,602.2,rob ver 1A,2013-02-13 17:53:00,
2013-02-13 10:59:00,57.8,18.6,29.71,WNW,295,9.1,12.6,20,-99.99,,,0.00,613.9,rob ver 1A,2013-02-13 17:59:00,
2013-02-13 11:04:00,58.0,18.7,29.71,West,271,9.2,11.9,20,-99.99,,,0.00,623.4,rob ver 1A,2013-02-13 18:04:00,
2013-02-13 11:09:00,58.7,18.7,29.71,West,272,12.3,16.9,19,-99.99,,,0.00,633.1,rob ver 1A,2013-02-13 18:09:00,
2013-02-13 11:14:00,60.5,17.4,29.71,NW,313,18.5,22.8,18,-99.99,,,0.00,642.2,rob ver 1A,2013-02-13 18:14:00,
2013-02-13 11:19:00,60.3,17.3,29.71,NW,311,17.0,20.0,18,-99.99,,,0.00,649.7,rob ver 1A,2013-02-13 18:19:00,
2013-02-13 11:24:00,60.3,17.3,29.71,NW,305,13.8,16.0,18,-99.99,,,0.00,658.6,rob ver 1A,2013-02-13 18:24:00,
2013-02-13 11:29:00,60.7,17.8,29.71,WNW,299,19.0,23.2,18,-99.99,,,0.00,666.3,rob ver 1A,2013-02-13 18:29:00,
2013-02-13 11:34:00,61.3,18.0,29.71,WNW,298,18.8,24.2,18,-99.99,,,0.00,673.1,rob ver 1A,2013-02-13 18:34:00,
2013-02-13 11:39:00,61.4,17.9,29.71,NW,312,17.1,20.0,17,-99.99,,,0.00,680.5,rob ver 1A,2013-02-13 18:39:00,
2013-02-13 11:44:00,61.2,17.9,29.71,WNW,293,16.7,19.3,18,-99.99,,,0.00,689,rob ver 1A,2013-02-13 18:44:00,
2013-02-13 11:49:00,61.4,18.2,29.71,WNW,294,17.6,22.1,18,-99.99,,,0.00,695.2,rob ver 1A,2013-02-13 18:49:00,
2013-02-13 11:54:00,62.0,18.3,29.71,WNW,289,16.7,23.7,18,-99.99,,,0.00,699.1,rob ver 1A,2013-02-13 18:54:00,
2013-02-13 11:59:00,61.7,18.1,29.71,WNW,292,17.2,19.6,18,-99.99,,,0.00,705,rob ver 1A,2013-02-13 18:59:00,
2013-02-13 12:04:00,61.9,17.8,29.71,NW,318,12.1,16.2,17,-99.99,,,0.00,710,rob ver 1A,2013-02-13 19:04:00,
2013-02-13 12:09:00,62.3,17.4,29.71,NW,310,16.0,20.0,17,-99.99,,,0.00,714,rob ver 1A,2013-02-13 19:09:00,
2013-02-13 12:14:00,62.1,17.6,29.68,NW,304,16.7,21.4,17,-99.99,,,0.00,718,rob ver 1A,2013-02-13 19:14:00,
2013-02-13 12:19:00,62.6,17.8,29.68,WNW,297,14.9,18.8,17,-99.99,,,0.00,722,rob ver 1A,2013-02-13 19:19:00,
2013-02-13 12:24:00,63.0,17.7,29.68,NNW,328,14.4,17.6,17,-99.99,,,0.00,725,rob ver 1A,2013-02-13 19:24:00,
2013-02-13 12:29:00,62.9,18.6,29.68,NW,324,13.7,17.4,17,-99.99,,,0.00,727,rob ver 1A,2013-02-13 19:29:00,
2013-02-13 12:34:00,62.9,19.1,29.68,NW,326,13.3,16.8,18,-99.99,,,0.00,730,rob ver 1A,2013-02-13 19:34:00,
2013-02-13 12:39:00,63.4,18.8,29.68,WNW,300,14.3,16.4,17,-99.99,,,0.00,731,rob ver 1A,2013-02-13 19:39:00,
2013-02-13 12:44:00,63.4,18.9,29.68,NW,307,16.8,20.6,18,-99.99,,,0.00,733,rob ver 1A,2013-02-13 19:44:00,
2013-02-13 12:49:00,63.4,18.8,29.68,NW,304,19.6,24.0,17,-99.99,,,0.00,734,rob ver 1A,2013-02-13 19:49:00,
2013-02-13 12:54:00,64.4,18.7,29.68,WNW,295,16.2,21.6,17,-99.99,,,0.00,733,rob ver 1A,2013-02-13 19:54:00,
2013-02-13 12:59:00,64.2,18.5,29.68,WNW,303,16.3,18.9,17,-99.99,,,0.00,733,rob ver 1A,2013-02-13 19:59:00,
2013-02-13 13:04:00,64.4,18.5,29.65,WNW,302,17.6,22.0,16,-99.99,,,0.00,733,rob ver 1A,2013-02-13 20:04:00,
2013-02-13 13:09:00,64.0,18.6,29.65,NW,316,16.3,20.8,17,-99.99,,,0.00,731,rob ver 1A,2013-02-13 20:09:00,
2013-02-13 13:15:00,64.9,18.2,29.65,NW,305,18.1,22.2,16,-99.99,,,0.00,730,rob ver 1B,2013-02-13 20:15:00,
2013-02-13 13:20:00,65.0,18.6,29.65,NNW,333,13.5,17.0,16,-99.99,,,0.00,728,rob ver 1A,2013-02-13 20:20:00,
2013-02-13 13:25:00,64.5,18.7,29.65,NW,307,14.0,16.6,17,-99.99,,,0.00,726,rob ver 1A,2013-02-13 20:25:00,
2013-02-13 13:30:00,64.7,19.1,29.65,WNW,299,15.1,19.2,16,-99.99,,,0.00,724,rob ver 1A,2013-02-13 20:30:00,
2013-02-13 13:35:00,65.0,18.4,29.65,WNW,300,14.1,16.3,16,-99.99,,,0.00,720,rob ver 1A,2013-02-13 20:35:00,
2013-02-13 13:40:00,65.1,18.9,29.65,WNW,298,13.7,16.5,16,-99.99,,,0.00,715,rob ver 1A,2013-02-13 20:40:00,
2013-02-13 13:45:00,65.7,19.9,29.65,WNW,301,16.0,18.9,17,-99.99,,,0.00,711,rob ver 1A,2013-02-13 20:45:00,
2013-02-13 13:50:00,65.2,20.0,29.65,WNW,286,16.8,21.3,17,-99.99,,,0.00,707,rob ver 1A,2013-02-13 20:50:00,
2013-02-13 13:55:00,64.9,20.5,29.62,WNW,299,14.9,18.1,17,-99.99,,,0.00,701,rob ver 1A,2013-02-13 20:55:00,
2013-02-13 14:00:00,64.7,19.9,29.62,NW,307,12.4,17.6,19,-99.99,,,0.00,695.5,rob ver 1A,2013-02-13 21:00:00,
2013-02-13 14:05:00,65.5,20.5,29.62,NW,310,18.5,22.3,17,-99.99,,,0.00,688,rob ver 1A,2013-02-13 21:05:00,
2013-02-13 14:10:00,65.2,20.6,29.62,NW,308,12.5,16.6,17,-99.99,,,0.00,681.7,rob ver 1A,2013-02-13 21:10:00,
2013-02-13 14:15:00,65.0,19.9,29.62,WNW,290,13.7,17.1,17,-99.99,,,0.00,674.7,rob ver 1A,2013-02-13 21:15:00,
2013-02-13 14:20:00,65.0,19.4,29.62,NW,307,16.8,19.4,17,-99.99,,,0.00,667.8,rob ver 1A,2013-02-13 21:20:00,
2013-02-13 14:25:00,65.6,20.9,29.62,NNW,330,11.6,15.1,17,-99.99,,,0.00,661.4,rob ver 1A,2013-02-13 21:25:00,
2013-02-13 14:30:00,65.3,19.5,29.62,WNW,301,13.3,16.9,16,-99.99,,,0.00,652.2,rob ver 1A,2013-02-13 21:30:00,
2013-02-13 14:35:00,65.8,19.2,29.62,WNW,302,14.9,19.0,17,-99.99,,,0.00,643.3,rob ver 1A,2013-02-13 21:35:00,
2013-02-13 14:40:00,65.7,20.0,29.62,NW,322,12.8,15.5,17,-99.99,,,0.00,635.9,rob ver 1A,2013-02-13 21:40:00,
2013-02-13 14:45:00,65.2,19.8,29.62,NW,317,10.4,13.2,17,-99.99,,,0.00,625.9,rob ver 1A,2013-02-13 21:45:00,
2013-02-13 14:50:00,65.6,19.5,29.62,WNW,294,12.2,17.1,16,-99.99,,,0.00,615.9,rob ver 1A,2013-02-13 21:50:00,
2013-02-13 14:55:00,65.5,19.4,29.62,WNW,285,10.1,13.9,17,-99.99,,,0.00,605.9,rob ver 1A,2013-02-13 21:55:00,
2013-02-13 15:00:00,66.0,19.6,29.62,NW,320,16.8,19.5,16,-99.99,,,0.00,593.9,rob ver 1A,2013-02-13 22:00:00,
2013-02-13 15:05:00,66.3,19.4,29.62,WNW,300,14.4,19.1,16,-99.99,,,0.00,584.1,rob ver 1A,2013-02-13 22:05:00,
2013-02-13 15:10:00,66.1,20.1,29.62,NW,316,11.2,18.3,16,-99.99,,,0.00,573.4,rob ver 1A,2013-02-13 22:10:00,
2013-02-13 15:15:00,65.8,19.8,29.62,WNW,292,12.0,17.0,16,-99.99,,,0.00,561.4,rob ver 1A,2013-02-13 22:15:00,
2013-02-13 15:20:00,66.1,20.2,29.62,West,273,12.5,16.1,16,-99.99,,,0.00,548.8,rob ver 1A,2013-02-13 22:20:00,
2013-02-13 15:25:00,66.3,19.7,29.62,WNW,285,10.5,14.0,16,-99.99,,,0.00,536.8,rob ver 1A,2013-02-13 22:25:00,
2013-02-13 15:30:00,66.0,20.2,29.62,WNW,295,10.4,13.7,17,-99.99,,,0.00,524.8,rob ver 1A,2013-02-13 22:30:00,
2013-02-13 15:35:00,66.0,20.1,29.62,NW,313,8.6,11.1,17,-99.99,,,0.00,511.1,rob ver 1A,2013-02-13 22:35:00,
2013-02-13 15:40:00,65.6,20.0,29.62,WNW,288,11.4,12.9,17,-99.99,,,0.00,498.1,rob ver 1A,2013-02-13 22:40:00,
2013-02-13 15:46:00,66.0,20.6,29.62,NW,322,12.4,14.7,17,-99.99,,,0.00,484.5,rob ver 1A,2013-02-13 22:46:00,
2013-02-13 15:51:00,65.7,20.2,29.62,WNW,290,9.9,12.1,17,-99.99,,,0.00,470.2,rob ver 1A,2013-02-13 22:51:00,
2013-02-13 15:56:00,66.0,19.8,29.59,WNW,298,13.7,17.0,17,-99.99,,,0.00,456.1,rob ver 1A,2013-02-13 22:56:00,
2013-02-13 16:01:00,66.2,19.8,29.62,NW,308,9.0,10.6,16,-99.99,,,0.00,441.7,rob ver 1A,2013-02-13 23:01:00,
2013-02-13 16:06:00,66.7,20.4,29.59,WNW,298,13.5,17.4,16,-99.99,,,0.00,426.6,rob ver 1B,2013-02-13 23:06:00,
2013-02-13 16:11:00,66.5,20.6,29.59,WNW,297,10.5,18.9,17,-99.99,,,0.00,408.5,rob ver 1A,2013-02-13 23:11:00,
2013-02-13 16:16:00,66.4,20.5,29.59,WNW,294,14.7,17.3,17,-99.99,,,0.00,392.9,rob ver 1A,2013-02-13 23:16:00,
2013-02-13 16:21:00,66.7,21.0,29.59,WNW,296,10.7,12.5,17,-99.99,,,0.00,377.7,rob ver 1A,2013-02-13 23:21:00,
2013-02-13 16:26:00,66.2,20.6,29.59,WNW,301,10.3,14.7,17,-99.99,,,0.00,362.4,rob ver 1A,2013-02-13 23:26:00,
2013-02-13 16:31:00,66.2,20.8,29.59,WNW,289,13.7,16.0,17,-99.99,,,0.00,345.8,rob ver 1A,2013-02-13 23:31:00,
2013-02-13 16:36:00,66.6,20.9,29.59,WNW,302,10.5,12.7,17,-99.99,,,0.00,329.4,rob ver 1A,2013-02-13 23:36:00,
2013-02-13 16:41:00,67.0,21.1,29.59,WNW,297,12.4,15.9,17,-99.99,,,0.00,313.5,rob ver 1A,2013-02-13 23:41:00,
2013-02-13 16:46:00,66.6,21.0,29.59,West,275,11.9,15.1,17,-99.99,,,0.00,296.3,rob ver 1A,2013-02-13 23:46:00,
2013-02-13 16:51:00,66.4,21.0,29.59,WNW,302,10.5,13.6,17,-99.99,,,0.00,279.6,rob ver 1B,2013-02-13 23:51:00,
2013-02-13 16:57:00,66.7,20.9,29.59,NW,307,11.9,15.0,17,-99.99,,,0.00,263.2,rob ver 1A,2013-02-13 23:57:00,
2013-02-13 17:02:00,66.5,21.4,29.59,NW,317,9.7,12.5,17,-99.99,,,0.00,246.4,rob ver 1A,2013-02-14 00:02:00,
2013-02-13 17:07:00,66.7,21.4,29.59,NW,305,11.8,15.4,17,-99.99,,,0.00,229.7,rob ver 1A,2013-02-14 00:07:00,
2013-02-13 17:12:00,66.5,21.5,29.59,NW,307,11.3,14.0,17,-99.99,,,0.00,212.6,rob ver 1A,2013-02-14 00:12:00,
2013-02-13 17:17:00,66.4,21.2,29.59,NW,307,11.2,14.1,17,-99.99,,,0.00,195.7,rob ver 1A,2013-02-14 00:17:00,
2013-02-13 17:22:00,66.5,21.3,29.59,WNW,288,12.8,15.9,17,-99.99,,,0.00,179.2,rob ver 1A,2013-02-14 00:22:00,
2013-02-13 17:27:00,66.3,21.3,29.59,NW,304,9.5,12.2,18,-99.99,,,0.00,162.8,rob ver 1A,2013-02-14 00:27:00,
2013-02-13 17:32:00,66.2,21.7,29.59,NW,309,11.3,12.9,18,-99.99,,,0.00,146.3,rob ver 1A,2013-02-14 00:32:00,
2013-02-13 17:37:00,66.1,21.7,29.59,WNW,294,10.3,12.8,18,-99.99,,,0.00,131.1,rob ver 1A,2013-02-14 00:37:00,
2013-02-13 17:42:00,66.1,22.1,29.59,NW,312,10.7,14.0,18,-99.99,,,0.00,112.2,rob ver 1A,2013-02-14 00:42:00,
2013-02-13 17:47:00,66.0,21.9,29.59,WNW,303,9.8,12.9,18,-99.99,,,0.00,97.8,rob ver 1A,2013-02-14 00:47:00,
2013-02-13 17:52:00,65.9,21.9,29.59,WNW,301,11.4,14.1,18,-99.99,,,0.00,82.4,rob ver 1A,2013-02-14 00:52:00,
2013-02-13 17:57:00,65.6,21.7,29.59,NW,304,8.4,9.7,18,-99.99,,,0.00,67.6,rob ver 1A,2013-02-14 00:57:00,
2013-02-13 18:02:00,65.4,21.8,29.59,WNW,298,11.3,13.2,18,-99.99,,,0.00,53.81,rob ver 1A,2013-02-14 01:02:00,
2013-02-13 18:07:00,65.4,21.5,29.59,WNW,301,10.4,12.1,18,-99.99,,,0.00,40.69,rob ver 1A,2013-02-14 01:07:00,
2013-02-13 18:12:00,65.2,21.8,29.59,NW,306,8.2,10.1,19,-99.99,,,0.00,28.55,rob ver 1A,2013-02-14 01:12:00,
2013-02-13 18:17:00,64.8,21.9,29.59,NW,306,6.8,8.3,19,-99.99,,,0.00,13.13,rob ver 1B,2013-02-14 01:17:00,
2013-02-13 18:22:00,64.3,22.0,29.59,NW,305,6.4,7.3,19,-99.99,,,0.00,5.25,rob ver 1A,2013-02-14 01:22:00,
2013-02-13 18:27:00,64.0,22.2,29.59,NW,309,5.3,6.0,20,-99.99,,,0.00,2.953,rob ver 1A,2013-02-14 01:27:00,
2013-02-13 18:32:00,63.4,22.4,29.59,NW,309,5.2,7.2,20,-99.99,,,0.00,1.641,rob ver 1A,2013-02-14 01:32:00,
2013-02-13 18:37:00,63.1,22.5,29.59,NW,312,6.1,7.0,20,-99.99,,,0.00,.328,rob ver 1A,2013-02-14 01:37:00,
2013-02-13 18:43:00,62.8,22.4,29.59,NW,311,5.3,6.3,21,-99.99,,,0.00,.164,rob ver 1A,2013-02-14 01:43:00,
2013-02-13 18:48:00,62.3,22.6,29.59,NW,316,5.4,6.0,21,-99.99,,,0.00,0,rob ver 1A,2013-02-14 01:48:00,
2013-02-13 18:53:00,61.8,22.6,29.59,NW,317,4.5,5.3,22,-99.99,,,0.00,0,rob ver 1B,2013-02-14 01:53:00,
2013-02-13 18:58:00,61.7,22.5,29.59,NW,320,4.2,4.7,21,-99.99,,,0.00,0,rob ver 1A,2013-02-14 01:58:00,
2013-02-13 19:03:00,61.8,22.6,29.59,NW,324,3.5,4.2,22,-99.99,,,0.00,0,rob ver 1A,2013-02-14 02:03:00,
2013-02-13 19:08:00,61.6,22.6,29.59,NW,325,3.3,3.9,22,-99.99,,,0.00,0,rob ver 1A,2013-02-14 02:08:00,
2013-02-13 19:13:00,61.6,22.6,29.59,NW,324,2.8,3.1,22,-99.99,,,0.00,0,rob ver 1A,2013-02-14 02:13:00,
2013-02-13 19:18:00,61.5,22.6,29.59,NW,324,3.1,3.6,22,-99.99,,,0.00,0,rob ver 1A,2013-02-14 02:18:00,
2013-02-13 19:23:00,61.3,22.7,29.59,West,276,2.7,3.9,22,-99.99,,,0.00,0,rob ver 1A,2013-02-14 02:23:00,
2013-02-13 19:28:00,59.9,22.8,29.59,West,279,2.2,2.2,23,-99.99,,,0.00,0,rob ver 1A,2013-02-14 02:28:00,
2013-02-13 19:33:00,60.2,23.0,29.59,WNW,286,2.1,2.3,23,-99.99,,,0.00,0,rob ver 1A,2013-02-14 02:33:00,
2013-02-13 19:38:00,59.5,22.9,29.59,WNW,290,2.1,2.2,24,-99.99,,,0.00,0,rob ver 1A,2013-02-14 02:38:00,
2013-02-13 19:43:00,59.5,22.9,29.59,NW,306,2.4,2.4,24,-99.99,,,0.00,0,rob ver 1A,2013-02-14 02:43:00,
2013-02-13 19:48:00,59.3,23.0,29.59,NW,322,2.6,2.8,24,-99.99,,,0.00,0,rob ver 1A,2013-02-14 02:48:00,
2013-02-13 19:53:00,59.2,23.0,29.59,WNW,302,2.2,2.3,24,-99.99,,,0.00,0,rob ver 1A,2013-02-14 02:53:00,
2013-02-13 19:58:00,59.0,23.0,29.59,West,280,1.7,1.7,24,-99.99,,,0.00,0,rob ver 1A,2013-02-14 02:58:00,
2013-02-13 20:03:00,59.2,23.0,29.59,NW,305,1.6,1.7,24,-99.99,,,0.00,0,rob ver 1A,2013-02-14 03:03:00,
2013-02-13 20:08:00,59.1,22.9,29.59,West,270,1.4,1.7,24,-99.99,,,0.00,0,rob ver 1A,2013-02-14 03:08:00,
2013-02-13 20:13:00,58.9,22.9,29.59,WNW,293,1.2,1.5,24,-99.99,,,0.00,0,rob ver 1A,2013-02-14 03:13:00,
2013-02-13 20:18:00,59.0,22.8,29.59,NW,323,1.8,2.9,24,-99.99,,,0.00,0,rob ver 1A,2013-02-14 03:18:00,
2013-02-13 20:23:00,58.9,22.8,29.59,NW,322,1.9,2.0,24,-99.99,,,0.00,0,rob ver 1A,2013-02-14 03:23:00,
2013-02-13 20:28:00,58.7,22.8,29.59,NW,325,1.5,1.8,24,-99.99,,,0.00,0,rob ver 1A,2013-02-14 03:28:00,
2013-02-13 20:33:00,57.8,23.2,29.59,SSW,211,0.7,1.1,26,-99.99,,,0.00,0,rob ver 1A,2013-02-14 03:33:00,
2013-02-13 20:38:00,57.1,22.9,29.59,North,351,0.6,1.0,26,-99.99,,,0.00,0,rob ver 1A,2013-02-14 03:38:00,
2013-02-13 20:43:00,56.4,23.0,29.59,NNE,26,2.9,3.2,27,-99.99,,,0.00,0,rob ver 1A,2013-02-14 03:43:00,
2013-02-13 20:48:00,56.5,22.9,29.59,NNE,14,4.3,4.9,26,-99.99,,,0.00,0,rob ver 1A,2013-02-14 03:48:00,
2013-02-13 20:53:00,57.3,22.9,29.59,North,9,5.0,5.3,26,-99.99,,,0.00,0,rob ver 1A,2013-02-14 03:53:00,
2013-02-13 20:58:00,57.7,23.0,29.59,North,7,5.5,5.8,25,-99.99,,,0.00,0,rob ver 1A,2013-02-14 03:58:00,
2013-02-13 21:03:00,57.9,23.0,29.59,North,7,5.3,5.6,25,-99.99,,,0.00,0,rob ver 1A,2013-02-14 04:03:00,
2013-02-13 21:08:00,58.0,23.0,29.59,North,9,5.1,5.7,25,-99.99,,,0.00,0,rob ver 1A,2013-02-14 04:08:00,
2013-02-13 21:14:00,58.1,22.9,29.59,North,5,5.1,5.5,25,-99.99,,,0.00,0,rob ver 1A,2013-02-14 04:14:00,
2013-02-13 21:19:00,58.4,22.8,29.59,North,4,4.8,5.2,25,-99.99,,,0.00,0,rob ver 1A,2013-02-14 04:19:00,
2013-02-13 21:24:00,58.3,22.8,29.59,North,352,3.4,3.6,25,-99.99,,,0.00,0,rob ver 1A,2013-02-14 04:24:00,
2013-02-13 21:29:00,57.6,23.6,29.62,West,278,1.6,2.1,27,-99.99,,,0.00,0,rob ver 1A,2013-02-14 04:29:00,
2013-02-13 21:34:00,55.4,23.5,29.62,West,270,1.8,2.5,28,-99.99,,,0.00,0,rob ver 1A,2013-02-14 04:34:00,
2013-02-13 21:39:00,55.1,23.6,29.59,WNW,297,1.3,1.7,29,-99.99,,,0.00,0,rob ver 1A,2013-02-14 04:39:00,
2013-02-13 21:44:00,54.6,23.2,29.59,WNW,283,2.0,2.3,29,-99.99,,,0.00,0,rob ver 1A,2013-02-14 04:44:00,
2013-02-13 21:49:00,55.3,23.4,29.62,WNW,300,1.8,2.1,28,-99.99,,,0.00,0,rob ver 1A,2013-02-14 04:49:00,
2013-02-13 21:54:00,54.6,23.6,29.59,West,278,2.6,3.1,29,-99.99,,,0.00,0,rob ver 1A,2013-02-14 04:54:00,
2013-02-13 21:59:00,54.7,23.4,29.59,WNW,299,2.8,3.3,29,-99.99,,,0.00,0,rob ver 1A,2013-02-14 04:59:00,
2013-02-13 22:00:00,54.7,23.4,29.59,WNW,299,2.8,3.3,29,-99.99,,,0.00,0,rob ver 1B,2013-02-14 05:00:00,
2013-02-13 22:01:00,54.8,23.7,29.59,WNW,298,2.8,3.2,29,-99.99,,,0.00,0,rob ver 1A,2013-02-14 05:01:00,
2013-02-13 22:06:00,54.7,23.8,29.62,WNW,294,2.3,2.7,29,-99.99,,,0.00,0,rob ver 1A,2013-02-14 05:06:00,
2013-02-13 22:11:00,54.8,23.3,29.59,WNW,295,2.1,2.5,29,-99.99,,,0.00,0,rob ver 1A,2013-02-14 05:11:00,
2013-02-13 22:16:00,54.4,23.5,29.59,WNW,302,2.3,2.7,29,-99.99,,,0.00,0,rob ver 1A,2013-02-14 05:16:00,
2013-02-13 22:21:00,53.3,23.8,29.59,West,268,2.2,2.6,31,-99.99,,,0.00,0,rob ver 1A,2013-02-14 05:21:00,
2013-02-13 22:27:00,52.8,23.5,29.62,NNW,332,2.2,2.8,31,-99.99,,,0.00,0,rob ver 1A,2013-02-14 05:27:00,
2013-02-13 22:32:00,53.2,23.4,29.62,North,351,4.2,4.5,31,-99.99,,,0.00,0,rob ver 1A,2013-02-14 05:32:00,
2013-02-13 22:37:00,53.7,23.2,29.59,NNW,330,4.7,5.1,30,-99.99,,,0.00,0,rob ver 1A,2013-02-14 05:37:00,
2013-02-13 22:42:00,54.4,23.3,29.59,NNW,336,3.5,3.9,29,-99.99,,,0.00,0,rob ver 1A,2013-02-14 05:42:00,
2013-02-13 22:47:00,53.4,23.3,29.62,North,3,4.1,4.4,30,-99.99,,,0.00,0,rob ver 1A,2013-02-14 05:47:00,
2013-02-13 22:52:00,54.2,23.0,29.62,NNE,20,4.3,4.5,29,-99.99,,,0.00,0,rob ver 1A,2013-02-14 05:52:00,
2013-02-13 22:57:00,53.2,23.2,29.62,South,189,2.4,3.1,30,-99.99,,,0.00,0,rob ver 1A,2013-02-14 05:57:00,
2013-02-13 23:02:00,53.3,23.0,29.62,NE,42,1.6,1.8,30,-99.99,,,0.00,0,rob ver 1B,2013-02-14 06:02:00,
2013-02-13 23:07:00,52.7,23.3,29.59,SSW,209,1.3,1.5,31,-99.99,,,0.00,0,rob ver 1A,2013-02-14 06:07:00,
2013-02-13 23:12:00,51.9,23.5,29.62,WSW,257,4.0,4.9,32,-99.99,,,0.00,0,rob ver 1A,2013-02-14 06:12:00,
2013-02-13 23:17:00,51.1,23.8,29.62,West,262,3.7,4.0,34,-99.99,,,0.00,0,rob ver 1A,2013-02-14 06:17:00,
2013-02-13 23:22:00,50.8,23.8,29.62,WSW,258,3.7,3.8,34,-99.99,,,0.00,0,rob ver 1A,2013-02-14 06:22:00,
2013-02-13 23:27:00,51.3,23.9,29.62,West,276,2.9,3.1,34,-99.99,,,0.00,0,rob ver 1A,2013-02-14 06:27:00,
2013-02-13 23:32:00,51.6,24.1,29.62,NW,305,3.0,3.3,33,-99.99,,,0.00,0,rob ver 1A,2013-02-14 06:32:00,
2013-02-13 23:37:00,50.9,24.1,29.62,NNW,331,2.8,3.0,34,-99.99,,,0.00,0,rob ver 1A,2013-02-14 06:37:00,
2013-02-13 23:42:00,50.4,24.6,29.59,North,0,3.9,4.0,36,-99.99,,,0.00,0,rob ver 1A,2013-02-14 06:42:00,
2013-02-13 23:47:00,49.8,24.3,29.59,NW,322,0.8,1.1,36,-99.99,,,0.00,0,rob ver 1A,2013-02-14 06:47:00,
2013-02-13 23:52:00,49.7,24.5,29.59,NNE,30,1.8,2.0,37,-99.99,,,0.00,0,rob ver 1A,2013-02-14 06:52:00,
2013-02-13 23:57:00,50.5,23.4,29.62,NNE,17,3.3,3.6,34,-99.99,,,0.00,0,rob ver 1A,2013-02-14 06:57:00,